sensor_id;sensor_type;location;lat;lon;timestamp;pressure;altitude;pressure_sealevel;temperature
16956;BMP180;8594;52.052;8.354;2022-12-05T00:00:26;100708.00;;;4.80
16956;BMP180;8594;52.052;8.354;2022-12-05T00:02:53;100702.00;;;4.70
16956;BMP180;8594;52.052;8.354;2022-12-05T00:05:21;100700.00;;;4.70
16956;BMP180;8594;52.052;8.354;2022-12-05T00:07:48;100703.00;;;4.30
16956;BMP180;8594;52.052;8.354;2022-12-05T00:10:15;100707.00;;;4.20
16956;BMP180;8594;52.052;8.354;2022-12-05T00:12:42;100712.00;;;4.40
16956;BMP180;8594;52.052;8.354;2022-12-05T00:15:09;100714.00;;;4.40
16956;BMP180;8594;52.052;8.354;2022-12-05T00:17:38;100708.00;;;4.10
16956;BMP180;8594;52.052;8.354;2022-12-05T00:20:07;100705.00;;;3.90
16956;BMP180;8594;52.052;8.354;2022-12-05T00:22:36;100701.00;;;4.30
16956;BMP180;8594;52.052;8.354;2022-12-05T00:25:06;100709.00;;;4.30
16956;BMP180;8594;52.052;8.354;2022-12-05T00:27:33;100701.00;;;4.70
16956;BMP180;8594;52.052;8.354;2022-12-05T00:30:01;100711.00;;;4.30
16956;BMP180;8594;52.052;8.354;2022-12-05T00:32:28;100705.00;;;4.40
16956;BMP180;8594;52.052;8.354;2022-12-05T00:34:55;100707.00;;;4.30
16956;BMP180;8594;52.052;8.354;2022-12-05T00:37:23;100706.00;;;4.40
16956;BMP180;8594;52.052;8.354;2022-12-05T00:39:51;100702.00;;;4.60
16956;BMP180;8594;52.052;8.354;2022-12-05T00:42:18;100701.00;;;4.60
16956;BMP180;8594;52.052;8.354;2022-12-05T00:44:48;100693.00;;;4.30
16956;BMP180;8594;52.052;8.354;2022-12-05T00:47:15;100691.00;;;4.10
16956;BMP180;8594;52.052;8.354;2022-12-05T00:49:42;100692.00;;;4.00
16956;BMP180;8594;52.052;8.354;2022-12-05T00:52:09;100677.00;;;3.80
16956;BMP180;8594;52.052;8.354;2022-12-05T00:54:35;100677.00;;;3.80
16956;BMP180;8594;52.052;8.354;2022-12-05T00:57:04;100677.00;;;3.80
16956;BMP180;8594;52.052;8.354;2022-12-05T00:59:30;100682.00;;;3.90
16956;BMP180;8594;52.052;8.354;2022-12-05T01:01:57;100679.00;;;4.00
16956;BMP180;8594;52.052;8.354;2022-12-05T01:04:25;100666.00;;;3.90
16956;BMP180;8594;52.052;8.354;2022-12-05T01:06:55;100660.00;;;3.90
16956;BMP180;8594;52.052;8.354;2022-12-05T01:09:23;100656.00;;;3.80
16956;BMP180;8594;52.052;8.354;2022-12-05T01:11:51;100655.00;;;3.60
16956;BMP180;8594;52.052;8.354;2022-12-05T01:14:23;100666.00;;;3.70
16956;BMP180;8594;52.052;8.354;2022-12-05T01:16:53;100671.00;;;3.70
16956;BMP180;8594;52.052;8.354;2022-12-05T01:19:23;100670.00;;;3.80
16956;BMP180;8594;52.052;8.354;2022-12-05T01:21:51;100665.00;;;3.80
16956;BMP180;8594;52.052;8.354;2022-12-05T01:24:20;100670.00;;;3.70
16956;BMP180;8594;52.052;8.354;2022-12-05T01:26:48;100663.00;;;3.60
16956;BMP180;8594;52.052;8.354;2022-12-05T01:29:19;100656.00;;;3.70
16956;BMP180;8594;52.052;8.354;2022-12-05T01:31:46;100656.00;;;3.80
16956;BMP180;8594;52.052;8.354;2022-12-05T01:34:16;100655.00;;;3.70
16956;BMP180;8594;52.052;8.354;2022-12-05T01:36:43;100660.00;;;3.80
16956;BMP180;8594;52.052;8.354;2022-12-05T01:39:11;100664.00;;;3.80
16956;BMP180;8594;52.052;8.354;2022-12-05T01:41:43;100663.00;;;3.90
16956;BMP180;8594;52.052;8.354;2022-12-05T01:44:59;100665.00;;;3.80
16956;BMP180;8594;52.052;8.354;2022-12-05T01:47:28;100664.00;;;3.50
16956;BMP180;8594;52.052;8.354;2022-12-05T01:49:57;100661.00;;;3.70
16956;BMP180;8594;52.052;8.354;2022-12-05T01:52:28;100663.00;;;3.70
16956;BMP180;8594;52.052;8.354;2022-12-05T01:55:11;100651.00;;;3.80
16956;BMP180;8594;52.052;8.354;2022-12-05T01:57:40;100649.00;;;3.70
16956;BMP180;8594;52.052;8.354;2022-12-05T02:00:14;100655.00;;;3.60
16956;BMP180;8594;52.052;8.354;2022-12-05T02:02:47;100656.00;;;3.60
16956;BMP180;8594;52.052;8.354;2022-12-05T02:05:20;100646.00;;;3.60
16956;BMP180;8594;52.052;8.354;2022-12-05T02:07:47;100653.00;;;3.80
16956;BMP180;8594;52.052;8.354;2022-12-05T02:10:15;100658.00;;;3.80
16956;BMP180;8594;52.052;8.354;2022-12-05T02:12:43;100659.00;;;3.50
16956;BMP180;8594;52.052;8.354;2022-12-05T02:15:27;100655.00;;;3.70
16956;BMP180;8594;52.052;8.354;2022-12-05T02:18:14;100655.00;;;3.60
16956;BMP180;8594;52.052;8.354;2022-12-05T02:21:13;100659.00;;;3.50
16956;BMP180;8594;52.052;8.354;2022-12-05T02:24:18;100658.00;;;3.70
16956;BMP180;8594;52.052;8.354;2022-12-05T02:27:16;100662.00;;;3.50
16956;BMP180;8594;52.052;8.354;2022-12-05T02:30:06;100649.00;;;3.60
16956;BMP180;8594;52.052;8.354;2022-12-05T02:32:46;100651.00;;;3.60
16956;BMP180;8594;52.052;8.354;2022-12-05T02:35:29;100650.00;;;3.60
16956;BMP180;8594;52.052;8.354;2022-12-05T02:38:12;100644.00;;;3.60
16956;BMP180;8594;52.052;8.354;2022-12-05T02:40:53;100644.00;;;3.70
16956;BMP180;8594;52.052;8.354;2022-12-05T02:43:29;100642.00;;;3.60
16956;BMP180;8594;52.052;8.354;2022-12-05T02:46:06;100642.00;;;3.60
16956;BMP180;8594;52.052;8.354;2022-12-05T02:48:36;100641.00;;;3.50
16956;BMP180;8594;52.052;8.354;2022-12-05T02:51:06;100639.00;;;3.80
16956;BMP180;8594;52.052;8.354;2022-12-05T02:53:37;100638.00;;;3.80
16956;BMP180;8594;52.052;8.354;2022-12-05T02:56:06;100640.00;;;3.80
16956;BMP180;8594;52.052;8.354;2022-12-05T02:58:39;100636.00;;;3.90
16956;BMP180;8594;52.052;8.354;2022-12-05T03:01:09;100637.00;;;3.90
16956;BMP180;8594;52.052;8.354;2022-12-05T03:03:36;100643.00;;;3.70
16956;BMP180;8594;52.052;8.354;2022-12-05T03:06:09;100653.00;;;3.80
16956;BMP180;8594;52.052;8.354;2022-12-05T03:08:41;100652.00;;;3.80
16956;BMP180;8594;52.052;8.354;2022-12-05T03:11:09;100644.00;;;3.90
16956;BMP180;8594;52.052;8.354;2022-12-05T03:13:43;100653.00;;;4.00
16956;BMP180;8594;52.052;8.354;2022-12-05T03:16:19;100648.00;;;4.10
16956;BMP180;8594;52.052;8.354;2022-12-05T03:18:50;100649.00;;;3.80
16956;BMP180;8594;52.052;8.354;2022-12-05T03:21:29;100648.00;;;4.30
16956;BMP180;8594;52.052;8.354;2022-12-05T03:24:03;100643.00;;;4.20
16956;BMP180;8594;52.052;8.354;2022-12-05T03:26:43;100643.00;;;3.90
16956;BMP180;8594;52.052;8.354;2022-12-05T03:29:23;100650.00;;;4.10
16956;BMP180;8594;52.052;8.354;2022-12-05T03:32:06;100646.00;;;4.40
16956;BMP180;8594;52.052;8.354;2022-12-05T03:34:45;100643.00;;;4.10
16956;BMP180;8594;52.052;8.354;2022-12-05T03:37:22;100643.00;;;4.40
16956;BMP180;8594;52.052;8.354;2022-12-05T03:40:04;100638.00;;;4.30
16956;BMP180;8594;52.052;8.354;2022-12-05T03:42:40;100647.00;;;4.20
16956;BMP180;8594;52.052;8.354;2022-12-05T03:45:11;100647.00;;;4.00
16956;BMP180;8594;52.052;8.354;2022-12-05T03:47:48;100646.00;;;4.20
16956;BMP180;8594;52.052;8.354;2022-12-05T03:50:22;100648.00;;;4.00
16956;BMP180;8594;52.052;8.354;2022-12-05T03:52:57;100654.00;;;4.10
16956;BMP180;8594;52.052;8.354;2022-12-05T03:55:29;100656.00;;;4.40
16956;BMP180;8594;52.052;8.354;2022-12-05T03:58:01;100655.00;;;4.10
16956;BMP180;8594;52.052;8.354;2022-12-05T04:00:34;100658.00;;;4.50
16956;BMP180;8594;52.052;8.354;2022-12-05T04:03:08;100658.00;;;4.70
16956;BMP180;8594;52.052;8.354;2022-12-05T04:05:43;100664.00;;;4.70
16956;BMP180;8594;52.052;8.354;2022-12-05T04:08:17;100665.00;;;5.10
16956;BMP180;8594;52.052;8.354;2022-12-05T04:10:48;100669.00;;;5.30
16956;BMP180;8594;52.052;8.354;2022-12-05T04:13:22;100676.00;;;5.20
16956;BMP180;8594;52.052;8.354;2022-12-05T04:15:58;100675.00;;;5.30
16956;BMP180;8594;52.052;8.354;2022-12-05T04:18:54;100672.00;;;5.30
16956;BMP180;8594;52.052;8.354;2022-12-05T04:21:30;100669.00;;;5.20
16956;BMP180;8594;52.052;8.354;2022-12-05T04:24:08;100671.00;;;5.20
16956;BMP180;8594;52.052;8.354;2022-12-05T04:27:05;100671.00;;;5.10
16956;BMP180;8594;52.052;8.354;2022-12-05T04:29:41;100672.00;;;5.50
16956;BMP180;8594;52.052;8.354;2022-12-05T04:32:12;100674.00;;;5.50
16956;BMP180;8594;52.052;8.354;2022-12-05T04:34:49;100675.00;;;5.20
16956;BMP180;8594;52.052;8.354;2022-12-05T04:37:22;100676.00;;;5.20
16956;BMP180;8594;52.052;8.354;2022-12-05T04:39:57;100677.00;;;5.60
16956;BMP180;8594;52.052;8.354;2022-12-05T04:42:27;100681.00;;;5.10
16956;BMP180;8594;52.052;8.354;2022-12-05T04:45:02;100677.00;;;5.20
16956;BMP180;8594;52.052;8.354;2022-12-05T04:47:36;100680.00;;;5.20
16956;BMP180;8594;52.052;8.354;2022-12-05T04:50:09;100685.00;;;5.50
16956;BMP180;8594;52.052;8.354;2022-12-05T04:52:39;100681.00;;;5.60
16956;BMP180;8594;52.052;8.354;2022-12-05T04:55:11;100680.00;;;5.30
16956;BMP180;8594;52.052;8.354;2022-12-05T04:57:48;100679.00;;;5.60
16956;BMP180;8594;52.052;8.354;2022-12-05T05:00:18;100665.00;;;5.60
16956;BMP180;8594;52.052;8.354;2022-12-05T05:02:51;100674.00;;;5.70
16956;BMP180;8594;52.052;8.354;2022-12-05T05:05:22;100669.00;;;5.80
16956;BMP180;8594;52.052;8.354;2022-12-05T05:07:53;100673.00;;;5.90
16956;BMP180;8594;52.052;8.354;2022-12-05T05:10:29;100680.00;;;5.60
16956;BMP180;8594;52.052;8.354;2022-12-05T05:12:57;100676.00;;;5.10
16956;BMP180;8594;52.052;8.354;2022-12-05T05:15:24;100677.00;;;5.50
16956;BMP180;8594;52.052;8.354;2022-12-05T05:17:51;100689.00;;;5.60
16956;BMP180;8594;52.052;8.354;2022-12-05T05:20:17;100680.00;;;5.00
16956;BMP180;8594;52.052;8.354;2022-12-05T05:22:54;100683.00;;;5.30
16956;BMP180;8594;52.052;8.354;2022-12-05T05:25:22;100676.00;;;5.50
16956;BMP180;8594;52.052;8.354;2022-12-05T05:27:51;100678.00;;;5.60
16956;BMP180;8594;52.052;8.354;2022-12-05T05:30:20;100686.00;;;5.30
16956;BMP180;8594;52.052;8.354;2022-12-05T05:32:48;100685.00;;;5.30
16956;BMP180;8594;52.052;8.354;2022-12-05T05:35:15;100693.00;;;5.30
16956;BMP180;8594;52.052;8.354;2022-12-05T05:37:42;100688.00;;;5.60
16956;BMP180;8594;52.052;8.354;2022-12-05T05:40:12;100692.00;;;5.60
16956;BMP180;8594;52.052;8.354;2022-12-05T05:42:42;100693.00;;;5.60
16956;BMP180;8594;52.052;8.354;2022-12-05T05:45:11;100692.00;;;5.50
16956;BMP180;8594;52.052;8.354;2022-12-05T05:47:38;100697.00;;;5.80
16956;BMP180;8594;52.052;8.354;2022-12-05T05:50:07;100701.00;;;5.90
16956;BMP180;8594;52.052;8.354;2022-12-05T05:52:36;100701.00;;;6.10
16956;BMP180;8594;52.052;8.354;2022-12-05T05:55:05;100699.00;;;5.90
16956;BMP180;8594;52.052;8.354;2022-12-05T05:57:35;100700.00;;;6.10
16956;BMP180;8594;52.052;8.354;2022-12-05T06:00:05;100700.00;;;6.00
16956;BMP180;8594;52.052;8.354;2022-12-05T06:02:34;100707.00;;;5.90
16956;BMP180;8594;52.052;8.354;2022-12-05T06:05:02;100701.00;;;5.80
16956;BMP180;8594;52.052;8.354;2022-12-05T06:07:29;100704.00;;;6.00
16956;BMP180;8594;52.052;8.354;2022-12-05T06:09:56;100711.00;;;5.90
16956;BMP180;8594;52.052;8.354;2022-12-05T06:12:23;100704.00;;;6.20
16956;BMP180;8594;52.052;8.354;2022-12-05T06:14:51;100715.00;;;6.50
16956;BMP180;8594;52.052;8.354;2022-12-05T06:17:18;100708.00;;;6.20
16956;BMP180;8594;52.052;8.354;2022-12-05T06:19:45;100706.00;;;5.70
16956;BMP180;8594;52.052;8.354;2022-12-05T06:22:12;100707.00;;;6.10
16956;BMP180;8594;52.052;8.354;2022-12-05T06:24:39;100718.00;;;6.20
16956;BMP180;8594;52.052;8.354;2022-12-05T06:27:06;100718.00;;;5.60
16956;BMP180;8594;52.052;8.354;2022-12-05T06:29:34;100713.00;;;5.70
16956;BMP180;8594;52.052;8.354;2022-12-05T06:32:02;100715.00;;;5.60
16956;BMP180;8594;52.052;8.354;2022-12-05T06:34:29;100718.00;;;5.90
16956;BMP180;8594;52.052;8.354;2022-12-05T06:36:57;100712.00;;;5.70
16956;BMP180;8594;52.052;8.354;2022-12-05T06:39:24;100727.00;;;5.90
16956;BMP180;8594;52.052;8.354;2022-12-05T06:41:52;100715.00;;;6.10
16956;BMP180;8594;52.052;8.354;2022-12-05T06:44:19;100714.00;;;6.00
16956;BMP180;8594;52.052;8.354;2022-12-05T06:46:46;100720.00;;;5.90
16956;BMP180;8594;52.052;8.354;2022-12-05T06:49:14;100727.00;;;6.10
16956;BMP180;8594;52.052;8.354;2022-12-05T06:51:41;100719.00;;;5.80
16956;BMP180;8594;52.052;8.354;2022-12-05T06:54:11;100725.00;;;6.00
16956;BMP180;8594;52.052;8.354;2022-12-05T06:56:38;100731.00;;;6.00
16956;BMP180;8594;52.052;8.354;2022-12-05T06:59:05;100735.00;;;6.10
16956;BMP180;8594;52.052;8.354;2022-12-05T07:01:32;100739.00;;;6.00
16956;BMP180;8594;52.052;8.354;2022-12-05T07:04:10;100730.00;;;5.80
16956;BMP180;8594;52.052;8.354;2022-12-05T07:06:40;100736.00;;;6.00
16956;BMP180;8594;52.052;8.354;2022-12-05T07:09:08;100729.00;;;5.80
16956;BMP180;8594;52.052;8.354;2022-12-05T07:11:35;100740.00;;;5.70
16956;BMP180;8594;52.052;8.354;2022-12-05T07:14:03;100740.00;;;5.60
16956;BMP180;8594;52.052;8.354;2022-12-05T07:16:31;100734.00;;;5.60
16956;BMP180;8594;52.052;8.354;2022-12-05T07:18:58;100741.00;;;5.90
16956;BMP180;8594;52.052;8.354;2022-12-05T07:21:24;100741.00;;;6.00
16956;BMP180;8594;52.052;8.354;2022-12-05T07:23:53;100739.00;;;5.80
16956;BMP180;8594;52.052;8.354;2022-12-05T07:26:23;100743.00;;;5.80
16956;BMP180;8594;52.052;8.354;2022-12-05T07:28:50;100739.00;;;6.00
16956;BMP180;8594;52.052;8.354;2022-12-05T07:31:20;100745.00;;;5.90
16956;BMP180;8594;52.052;8.354;2022-12-05T07:33:48;100742.00;;;6.00
16956;BMP180;8594;52.052;8.354;2022-12-05T07:36:19;100754.00;;;5.90
16956;BMP180;8594;52.052;8.354;2022-12-05T07:38:47;100738.00;;;6.10
16956;BMP180;8594;52.052;8.354;2022-12-05T07:41:21;100757.00;;;5.80
16956;BMP180;8594;52.052;8.354;2022-12-05T07:43:49;100757.00;;;5.60
16956;BMP180;8594;52.052;8.354;2022-12-05T07:46:17;100741.00;;;5.50
16956;BMP180;8594;52.052;8.354;2022-12-05T07:48:44;100745.00;;;5.30
16956;BMP180;8594;52.052;8.354;2022-12-05T07:51:11;100752.00;;;5.60
16956;BMP180;8594;52.052;8.354;2022-12-05T07:53:39;100753.00;;;5.70
16956;BMP180;8594;52.052;8.354;2022-12-05T07:56:10;100752.00;;;5.50
16956;BMP180;8594;52.052;8.354;2022-12-05T07:58:40;100758.00;;;5.40
16956;BMP180;8594;52.052;8.354;2022-12-05T08:01:09;100745.00;;;5.60
16956;BMP180;8594;52.052;8.354;2022-12-05T08:03:36;100760.00;;;5.50
16956;BMP180;8594;52.052;8.354;2022-12-05T08:06:08;100757.00;;;5.60
16956;BMP180;8594;52.052;8.354;2022-12-05T08:08:35;100766.00;;;5.60
16956;BMP180;8594;52.052;8.354;2022-12-05T08:11:04;100763.00;;;5.50
16956;BMP180;8594;52.052;8.354;2022-12-05T08:13:32;100764.00;;;5.70
16956;BMP180;8594;52.052;8.354;2022-12-05T08:16:05;100759.00;;;5.80
16956;BMP180;8594;52.052;8.354;2022-12-05T08:18:32;100757.00;;;5.50
16956;BMP180;8594;52.052;8.354;2022-12-05T08:21:03;100759.00;;;5.60
16956;BMP180;8594;52.052;8.354;2022-12-05T08:23:32;100761.00;;;5.50
16956;BMP180;8594;52.052;8.354;2022-12-05T08:26:05;100760.00;;;5.40
16956;BMP180;8594;52.052;8.354;2022-12-05T08:28:32;100767.00;;;5.40
16956;BMP180;8594;52.052;8.354;2022-12-05T08:31:07;100770.00;;;5.60
16956;BMP180;8594;52.052;8.354;2022-12-05T08:33:34;100769.00;;;5.40
16956;BMP180;8594;52.052;8.354;2022-12-05T08:36:02;100778.00;;;5.50
16956;BMP180;8594;52.052;8.354;2022-12-05T08:38:36;100782.00;;;5.50
16956;BMP180;8594;52.052;8.354;2022-12-05T08:41:08;100779.00;;;5.50
16956;BMP180;8594;52.052;8.354;2022-12-05T08:43:35;100782.00;;;5.60
16956;BMP180;8594;52.052;8.354;2022-12-05T08:46:04;100774.00;;;5.50
16956;BMP180;8594;52.052;8.354;2022-12-05T08:48:32;100780.00;;;5.50
16956;BMP180;8594;52.052;8.354;2022-12-05T08:51:05;100771.00;;;5.30
16956;BMP180;8594;52.052;8.354;2022-12-05T08:53:33;100774.00;;;5.30
16956;BMP180;8594;52.052;8.354;2022-12-05T08:56:00;100775.00;;;5.40
16956;BMP180;8594;52.052;8.354;2022-12-05T08:58:28;100785.00;;;5.70
16956;BMP180;8594;52.052;8.354;2022-12-05T09:01:06;100776.00;;;5.90
16956;BMP180;8594;52.052;8.354;2022-12-05T09:03:33;100790.00;;;5.60
16956;BMP180;8594;52.052;8.354;2022-12-05T09:06:09;100786.00;;;5.60
16956;BMP180;8594;52.052;8.354;2022-12-05T09:08:37;100781.00;;;5.80
16956;BMP180;8594;52.052;8.354;2022-12-05T09:11:06;100777.00;;;5.20
16956;BMP180;8594;52.052;8.354;2022-12-05T09:13:35;100797.00;;;5.60
16956;BMP180;8594;52.052;8.354;2022-12-05T09:16:07;100793.00;;;5.70
16956;BMP180;8594;52.052;8.354;2022-12-05T09:18:35;100787.00;;;5.40
16956;BMP180;8594;52.052;8.354;2022-12-05T09:21:06;100791.00;;;5.40
16956;BMP180;8594;52.052;8.354;2022-12-05T09:23:34;100791.00;;;5.50
16956;BMP180;8594;52.052;8.354;2022-12-05T09:26:02;100790.00;;;5.40
16956;BMP180;8594;52.052;8.354;2022-12-05T09:28:30;100791.00;;;5.60
16956;BMP180;8594;52.052;8.354;2022-12-05T09:30:59;100791.00;;;5.50
16956;BMP180;8594;52.052;8.354;2022-12-05T09:33:31;100789.00;;;5.70
16956;BMP180;8594;52.052;8.354;2022-12-05T09:36:01;100797.00;;;5.80
16956;BMP180;8594;52.052;8.354;2022-12-05T09:38:28;100794.00;;;5.60
16956;BMP180;8594;52.052;8.354;2022-12-05T09:41:07;100794.00;;;5.30
16956;BMP180;8594;52.052;8.354;2022-12-05T09:43:44;100797.00;;;5.30
16956;BMP180;8594;52.052;8.354;2022-12-05T09:46:23;100797.00;;;5.30
16956;BMP180;8594;52.052;8.354;2022-12-05T09:48:56;100797.00;;;5.20
16956;BMP180;8594;52.052;8.354;2022-12-05T09:51:25;100804.00;;;5.10
16956;BMP180;8594;52.052;8.354;2022-12-05T09:53:53;100797.00;;;5.10
16956;BMP180;8594;52.052;8.354;2022-12-05T09:56:25;100797.00;;;4.90
16956;BMP180;8594;52.052;8.354;2022-12-05T09:58:54;100795.00;;;4.70
16956;BMP180;8594;52.052;8.354;2022-12-05T10:01:37;100802.00;;;5.00
16956;BMP180;8594;52.052;8.354;2022-12-05T10:04:27;100797.00;;;5.20
16956;BMP180;8594;52.052;8.354;2022-12-05T10:07:02;100797.00;;;5.10
16956;BMP180;8594;52.052;8.354;2022-12-05T10:09:54;100796.00;;;5.10
16956;BMP180;8594;52.052;8.354;2022-12-05T10:12:50;100796.00;;;5.10
16956;BMP180;8594;52.052;8.354;2022-12-05T10:15:29;100796.00;;;5.30
16956;BMP180;8594;52.052;8.354;2022-12-05T10:18:01;100797.00;;;5.60
16956;BMP180;8594;52.052;8.354;2022-12-05T10:20:35;100807.00;;;5.40
16956;BMP180;8594;52.052;8.354;2022-12-05T10:23:11;100799.00;;;5.60
16956;BMP180;8594;52.052;8.354;2022-12-05T10:25:41;100794.00;;;5.50
16956;BMP180;8594;52.052;8.354;2022-12-05T10:28:19;100786.00;;;5.30
16956;BMP180;8594;52.052;8.354;2022-12-05T10:30:59;100790.00;;;5.20
16956;BMP180;8594;52.052;8.354;2022-12-05T10:33:37;100792.00;;;5.10
16956;BMP180;8594;52.052;8.354;2022-12-05T10:36:12;100790.00;;;5.30
16956;BMP180;8594;52.052;8.354;2022-12-05T10:38:41;100785.00;;;5.40
16956;BMP180;8594;52.052;8.354;2022-12-05T10:41:12;100784.00;;;5.40
16956;BMP180;8594;52.052;8.354;2022-12-05T10:43:43;100786.00;;;5.60
16956;BMP180;8594;52.052;8.354;2022-12-05T10:46:12;100786.00;;;5.70
16956;BMP180;8594;52.052;8.354;2022-12-05T10:48:41;100783.00;;;5.80
16956;BMP180;8594;52.052;8.354;2022-12-05T10:51:15;100781.00;;;5.90
16956;BMP180;8594;52.052;8.354;2022-12-05T10:53:46;100789.00;;;5.90
16956;BMP180;8594;52.052;8.354;2022-12-05T10:56:38;100781.00;;;6.10
16956;BMP180;8594;52.052;8.354;2022-12-05T10:59:07;100776.00;;;6.10
16956;BMP180;8594;52.052;8.354;2022-12-05T11:01:35;100785.00;;;5.90
16956;BMP180;8594;52.052;8.354;2022-12-05T11:04:20;100783.00;;;5.80
16956;BMP180;8594;52.052;8.354;2022-12-05T11:06:56;100788.00;;;6.20
16956;BMP180;8594;52.052;8.354;2022-12-05T11:09:27;100769.00;;;5.70
16956;BMP180;8594;52.052;8.354;2022-12-05T11:12:17;100779.00;;;5.60
16956;BMP180;8594;52.052;8.354;2022-12-05T11:14:58;100779.00;;;5.50
16956;BMP180;8594;52.052;8.354;2022-12-05T11:17:31;100785.00;;;5.50
16956;BMP180;8594;52.052;8.354;2022-12-05T11:19:58;100768.00;;;5.20
16956;BMP180;8594;52.052;8.354;2022-12-05T11:22:34;100776.00;;;5.20
16956;BMP180;8594;52.052;8.354;2022-12-05T11:25:27;100767.00;;;5.20
16956;BMP180;8594;52.052;8.354;2022-12-05T11:27:56;100771.00;;;5.10
16956;BMP180;8594;52.052;8.354;2022-12-05T11:30:26;100769.00;;;5.20
16956;BMP180;8594;52.052;8.354;2022-12-05T11:33:14;100760.00;;;5.10
16956;BMP180;8594;52.052;8.354;2022-12-05T11:35:45;100770.00;;;5.20
16956;BMP180;8594;52.052;8.354;2022-12-05T11:38:14;100761.00;;;5.00
16956;BMP180;8594;52.052;8.354;2022-12-05T11:40:52;100764.00;;;4.90
16956;BMP180;8594;52.052;8.354;2022-12-05T11:43:50;100770.00;;;5.10
16956;BMP180;8594;52.052;8.354;2022-12-05T11:46:32;100767.00;;;5.30
16956;BMP180;8594;52.052;8.354;2022-12-05T11:49:27;100761.00;;;5.80
16956;BMP180;8594;52.052;8.354;2022-12-05T11:52:08;100768.00;;;6.00
16956;BMP180;8594;52.052;8.354;2022-12-05T11:54:54;100764.00;;;5.70
16956;BMP180;8594;52.052;8.354;2022-12-05T11:57:44;100759.00;;;5.60
16956;BMP180;8594;52.052;8.354;2022-12-05T12:00:21;100760.00;;;5.40
16956;BMP180;8594;52.052;8.354;2022-12-05T12:06:27;100753.00;;;5.20
16956;BMP180;8594;52.052;8.354;2022-12-05T12:09:21;100756.00;;;5.10
16956;BMP180;8594;52.052;8.354;2022-12-05T12:11:57;100758.00;;;5.30
16956;BMP180;8594;52.052;8.354;2022-12-05T12:14:40;100755.00;;;5.30
16956;BMP180;8594;52.052;8.354;2022-12-05T12:17:20;100761.00;;;5.40
16956;BMP180;8594;52.052;8.354;2022-12-05T12:20:17;100755.00;;;5.20
16956;BMP180;8594;52.052;8.354;2022-12-05T12:23:04;100753.00;;;5.50
16956;BMP180;8594;52.052;8.354;2022-12-05T12:25:43;100757.00;;;5.50
16956;BMP180;8594;52.052;8.354;2022-12-05T12:28:29;100761.00;;;5.10
16956;BMP180;8594;52.052;8.354;2022-12-05T12:31:19;100763.00;;;5.30
16956;BMP180;8594;52.052;8.354;2022-12-05T12:33:57;100756.00;;;5.40
16956;BMP180;8594;52.052;8.354;2022-12-05T12:36:27;100759.00;;;5.90
16956;BMP180;8594;52.052;8.354;2022-12-05T12:39:13;100752.00;;;5.10
16956;BMP180;8594;52.052;8.354;2022-12-05T12:42:06;100749.00;;;5.20
16956;BMP180;8594;52.052;8.354;2022-12-05T12:45:14;100742.00;;;5.50
16956;BMP180;8594;52.052;8.354;2022-12-05T12:47:59;100752.00;;;5.80
16956;BMP180;8594;52.052;8.354;2022-12-05T12:50:32;100756.00;;;5.90
16956;BMP180;8594;52.052;8.354;2022-12-05T12:53:35;100750.00;;;5.60
16956;BMP180;8594;52.052;8.354;2022-12-05T12:56:16;100739.00;;;5.60
16956;BMP180;8594;52.052;8.354;2022-12-05T12:58:53;100750.00;;;5.60
16956;BMP180;8594;52.052;8.354;2022-12-05T13:01:36;100749.00;;;5.70
16956;BMP180;8594;52.052;8.354;2022-12-05T13:04:10;100737.00;;;5.40
16956;BMP180;8594;52.052;8.354;2022-12-05T13:06:44;100740.00;;;5.40
16956;BMP180;8594;52.052;8.354;2022-12-05T13:09:19;100745.00;;;5.50
16956;BMP180;8594;52.052;8.354;2022-12-05T13:11:49;100746.00;;;5.30
16956;BMP180;8594;52.052;8.354;2022-12-05T13:14:22;100730.00;;;5.50
16956;BMP180;8594;52.052;8.354;2022-12-05T13:16:53;100740.00;;;5.60
16956;BMP180;8594;52.052;8.354;2022-12-05T13:19:30;100731.00;;;5.30
16956;BMP180;8594;52.052;8.354;2022-12-05T13:22:03;100733.00;;;5.10
16956;BMP180;8594;52.052;8.354;2022-12-05T13:24:31;100737.00;;;5.70
16956;BMP180;8594;52.052;8.354;2022-12-05T13:27:01;100732.00;;;5.70
16956;BMP180;8594;52.052;8.354;2022-12-05T13:29:32;100732.00;;;5.50
16956;BMP180;8594;52.052;8.354;2022-12-05T13:32:02;100740.00;;;5.30
16956;BMP180;8594;52.052;8.354;2022-12-05T13:34:44;100740.00;;;5.20
16956;BMP180;8594;52.052;8.354;2022-12-05T13:37:19;100740.00;;;5.10
16956;BMP180;8594;52.052;8.354;2022-12-05T13:40:21;100732.00;;;5.00
16956;BMP180;8594;52.052;8.354;2022-12-05T13:43:08;100751.00;;;5.10
16956;BMP180;8594;52.052;8.354;2022-12-05T13:45:36;100740.00;;;5.20
16956;BMP180;8594;52.052;8.354;2022-12-05T13:48:18;100754.00;;;5.00
16956;BMP180;8594;52.052;8.354;2022-12-05T13:50:56;100757.00;;;5.10
16956;BMP180;8594;52.052;8.354;2022-12-05T13:53:31;100762.00;;;5.20
16956;BMP180;8594;52.052;8.354;2022-12-05T13:56:04;100754.00;;;5.30
16956;BMP180;8594;52.052;8.354;2022-12-05T13:58:49;100754.00;;;5.20
16956;BMP180;8594;52.052;8.354;2022-12-05T14:01:44;100750.00;;;5.30
16956;BMP180;8594;52.052;8.354;2022-12-05T14:04:45;100751.00;;;5.30
16956;BMP180;8594;52.052;8.354;2022-12-05T14:07:42;100752.00;;;5.40
16956;BMP180;8594;52.052;8.354;2022-12-05T14:10:13;100753.00;;;5.20
16956;BMP180;8594;52.052;8.354;2022-12-05T14:12:55;100754.00;;;5.30
16956;BMP180;8594;52.052;8.354;2022-12-05T14:15:29;100746.00;;;5.20
16956;BMP180;8594;52.052;8.354;2022-12-05T14:18:04;100755.00;;;5.30
16956;BMP180;8594;52.052;8.354;2022-12-05T14:20:47;100754.00;;;5.30
16956;BMP180;8594;52.052;8.354;2022-12-05T14:23:48;100747.00;;;5.30
16956;BMP180;8594;52.052;8.354;2022-12-05T14:26:50;100755.00;;;5.40
16956;BMP180;8594;52.052;8.354;2022-12-05T14:29:40;100755.00;;;5.30
16956;BMP180;8594;52.052;8.354;2022-12-05T14:32:21;100749.00;;;5.40
16956;BMP180;8594;52.052;8.354;2022-12-05T14:35:03;100755.00;;;5.30
16956;BMP180;8594;52.052;8.354;2022-12-05T14:37:39;100749.00;;;5.20
16956;BMP180;8594;52.052;8.354;2022-12-05T14:40:20;100755.00;;;5.30
16956;BMP180;8594;52.052;8.354;2022-12-05T14:42:53;100753.00;;;5.30
16956;BMP180;8594;52.052;8.354;2022-12-05T14:45:36;100766.00;;;5.20
16956;BMP180;8594;52.052;8.354;2022-12-05T14:48:24;100755.00;;;5.30
16956;BMP180;8594;52.052;8.354;2022-12-05T14:50:54;100755.00;;;5.10
16956;BMP180;8594;52.052;8.354;2022-12-05T14:53:31;100759.00;;;5.10
16956;BMP180;8594;52.052;8.354;2022-12-05T14:56:17;100765.00;;;5.10
16956;BMP180;8594;52.052;8.354;2022-12-05T14:58:55;100759.00;;;5.30
16956;BMP180;8594;52.052;8.354;2022-12-05T15:01:27;100760.00;;;5.00
16956;BMP180;8594;52.052;8.354;2022-12-05T15:04:17;100763.00;;;5.00